Hillside Manor, New York
Current Conditions -  °F | °C
As of 2:51 AM on Thursday 27 Nov 2014 (Local Time) from KJFK Reporting Station
Overcast Overcast  
Wind Chill: 28°   Ceiling: 7000
Heat Index: 37°   Visibility: 10mi
Dew Point: 30°   Wind: 14mph
Humidity: 76%   Direction: 330°NNW
Pressure: 29.91"   Gusts: NA
Location:  40.7459°N, 73.6798°W
Report Text: KJFK 270751Z 33012KT 10SM SCT020 OVC070 03/M01 A2991 RMK AO2 SLP127 T00281011 $
Loading
Personal Weather Stations






























Interactive Weather Map New forecast layout! Learn more

10-Day Weather Forecast

Advertisements
Track Severe Weather on mobile